createdAt,value
2019-01-13T00:00:48.209Z,96930.70
2019-01-13T00:05:42.824Z,96924.04
2019-01-13T00:10:37.412Z,96929.27
2019-01-13T00:15:32.042Z,96916.41
2019-01-13T00:20:26.621Z,96927.39
2019-01-13T00:25:21.391Z,96924.09
2019-01-13T00:30:19.751Z,96933.47
2019-01-13T00:35:14.734Z,96924.81
2019-01-13T00:40:16.204Z,96911.70
2019-01-13T00:45:13.625Z,96927.25
2019-01-13T00:50:14.746Z,96923.59
2019-01-13T00:55:12.492Z,96906.89
2019-01-13T01:00:26.762Z,96907.07
2019-01-13T01:05:19.713Z,96897.50
2019-01-13T01:10:17.766Z,96905.33
2019-01-13T01:15:13.288Z,96900.19
2019-01-13T01:20:16.586Z,96902.04
2019-01-13T01:25:15.567Z,96918.88
2019-01-13T01:30:16.835Z,96922.43
2019-01-13T01:35:13.330Z,96912.48
2019-01-13T01:40:17.432Z,96914.75
2019-01-13T01:45:14.948Z,96915.95
2019-01-13T01:50:12.995Z,96910.30
2019-01-13T01:55:12.069Z,96925.16
2019-01-13T02:00:11.239Z,96924.62
2019-01-13T02:05:07.356Z,96922.05
2019-01-13T02:10:01.942Z,96929.12
2019-01-13T02:14:56.529Z,96926.91
2019-01-13T02:19:51.112Z,96928.84
2019-01-13T02:24:45.711Z,96920.87
2019-01-13T02:29:40.298Z,96926.73
2019-01-13T02:34:34.913Z,96934.57
2019-01-13T02:39:29.508Z,96933.72
2019-01-13T02:44:24.087Z,96941.81
2019-01-13T02:49:18.679Z,96935.23
2019-01-13T02:54:13.260Z,96941.51
2019-01-13T02:59:07.852Z,96934.37
2019-01-13T03:04:02.440Z,96933.72
2019-01-13T03:08:57.021Z,96928.14
2019-01-13T03:13:51.592Z,96913.36
2019-01-13T03:18:46.216Z,96906.56
2019-01-13T03:23:40.802Z,96910.12
2019-01-13T03:28:35.390Z,96897.50
2019-01-13T03:33:29.946Z,96900.94
2019-01-13T03:38:24.541Z,96902.55
2019-01-13T03:43:19.125Z,96893.75
2019-01-13T03:48:13.854Z,96878.96
2019-01-13T03:53:08.494Z,96890.87
2019-01-13T03:58:03.076Z,96889.84
2019-01-13T04:02:57.765Z,96882.24
2019-01-13T04:07:52.890Z,96892.77
2019-01-13T04:12:48.032Z,96891.92
2019-01-13T04:17:42.663Z,96895.41
2019-01-13T04:22:37.280Z,96896.98
2019-01-13T04:27:31.850Z,96882.72
2019-01-13T04:32:26.465Z,96878.22
2019-01-13T04:37:21.046Z,96881.69
2019-01-13T04:42:15.645Z,96875.83
2019-01-13T04:47:10.215Z,96871.28
2019-01-13T04:52:04.952Z,96865.12
2019-01-13T04:56:59.548Z,96864.27
2019-01-13T05:01:54.129Z,96863.57
2019-01-13T05:06:48.711Z,96860.84
2019-01-13T05:11:43.294Z,96839.08
2019-01-13T05:16:37.902Z,96835.38
2019-01-13T05:21:32.462Z,96823.74
2019-01-13T05:26:27.045Z,96834.97
2019-01-13T05:31:21.629Z,96833.70
2019-01-13T05:36:16.214Z,96834.28
2019-01-13T05:41:10.794Z,96840.20
2019-01-13T05:46:05.521Z,96839.91
2019-01-13T05:51:00.112Z,96843.70
2019-01-13T05:55:54.779Z,96854.88
2019-01-13T06:00:49.447Z,96856.94
2019-01-13T06:05:44.026Z,96862.75
2019-01-13T06:10:38.610Z,96858.36
2019-01-13T06:15:33.200Z,96852.44
2019-01-13T06:20:27.818Z,96843.39
2019-01-13T06:25:22.540Z,96846.11
2019-01-13T06:30:20.503Z,96832.31
2019-01-13T06:35:15.311Z,96818.02
2019-01-13T06:40:16.680Z,96811.53
2019-01-13T06:45:15.552Z,96809.31
2019-01-13T06:50:14.020Z,96813.23
2019-01-13T06:55:10.300Z,96807.77
2019-01-13T07:00:18.273Z,96805.30
2019-01-13T07:05:12.987Z,96798.94
2019-01-13T07:10:11.264Z,96810.55
2019-01-13T07:15:10.667Z,96815.73
2019-01-13T07:20:10.364Z,96813.05
2019-01-13T07:25:06.462Z,96812.58
2019-01-13T07:30:01.053Z,96806.72
2019-01-13T07:34:55.666Z,96795.23
2019-01-13T07:39:50.255Z,96791.38
2019-01-13T07:44:44.853Z,96794.95
2019-01-13T07:49:39.423Z,96787.84
2019-01-13T07:54:34.095Z,96775.92
2019-01-13T07:59:28.686Z,96761.72
2019-01-13T08:04:23.290Z,96768.92
2019-01-13T08:09:17.839Z,96765.96
2019-01-13T08:14:12.530Z,96764.55
2019-01-13T08:19:07.266Z,96745.82
2019-01-13T08:24:01.829Z,96763.37
2019-01-13T08:28:56.457Z,96763.91
2019-01-13T08:33:51.045Z,96757.17
2019-01-13T08:38:45.639Z,96760.25
2019-01-13T08:43:40.224Z,96760.76
2019-01-13T08:48:34.830Z,96742.72
2019-01-13T08:53:29.456Z,96740.25
2019-01-13T08:58:24.048Z,96735.73
2019-01-13T09:03:18.727Z,96722.70
2019-01-13T09:08:13.508Z,96729.24
2019-01-13T09:13:08.087Z,96725.47
2019-01-13T09:18:02.784Z,96703.14
2019-01-13T09:22:59.167Z,96674.64
2019-01-13T09:27:53.855Z,96666.20
2019-01-13T09:32:48.514Z,96673.71
2019-01-13T09:37:43.349Z,96650.13
2019-01-13T09:42:37.918Z,96677.07
2019-01-13T09:47:32.519Z,96702.74
2019-01-13T09:52:27.101Z,96702.19
2019-01-13T09:57:21.709Z,96699.41
2019-01-13T10:02:16.275Z,96698.20
2019-01-13T10:07:10.872Z,96694.03
2019-01-13T10:12:05.654Z,96694.35
2019-01-13T10:17:00.260Z,96700.41
2019-01-13T10:21:54.821Z,96690.10
2019-01-13T10:26:49.434Z,96686.20
2019-01-13T10:31:44.160Z,96673.35
2019-01-13T10:36:38.750Z,96680.63
2019-01-13T10:41:33.350Z,96673.28
2019-01-13T10:46:27.964Z,96674.93
2019-01-13T10:51:22.568Z,96663.99
2019-01-13T10:56:17.140Z,96654.91
2019-01-13T11:01:11.745Z,96667.42
2019-01-13T11:06:06.443Z,96648.37
2019-01-13T11:11:01.036Z,96636.72
2019-01-13T11:15:55.625Z,96614.31
2019-01-13T11:20:50.201Z,96615.30
2019-01-13T11:25:44.787Z,96605.61
2019-01-13T11:30:39.353Z,96602.75
2019-01-13T11:35:33.974Z,96591.34
2019-01-13T11:40:30.273Z,96593.45
2019-01-13T11:45:25.051Z,96586.33
2019-01-13T11:50:22.750Z,96566.77
2019-01-13T11:55:18.644Z,96560.86
2019-01-13T12:00:31.965Z,96539.16
2019-01-13T12:05:26.586Z,96533.25
2019-01-13T12:10:22.507Z,96525.55
2019-01-13T12:15:20.599Z,96510.83
2019-01-13T12:20:22.043Z,96504.66
2019-01-13T12:25:19.851Z,96491.50
2019-01-13T12:30:19.345Z,96487.70
2019-01-13T12:35:13.966Z,96466.78
2019-01-13T12:40:15.922Z,96481.55
2019-01-13T12:45:15.216Z,96467.09
2019-01-13T12:50:20.437Z,96435.94
2019-01-13T12:55:15.252Z,96434.45
2019-01-13T13:00:16.837Z,96409.88
2019-01-13T13:05:14.320Z,96408.02
2019-01-13T13:10:25.274Z,96395.95
2019-01-13T13:15:19.843Z,96406.27
2019-01-13T13:20:17.839Z,96374.19
2019-01-13T13:25:14.631Z,96367.31
2019-01-13T13:30:16.682Z,96363.22
2019-01-13T13:35:11.561Z,96331.45
2019-01-13T13:40:19.728Z,96366.42
2019-01-13T13:45:14.522Z,96354.32
2019-01-13T13:50:16.530Z,96327.87
2019-01-13T13:55:12.184Z,96352.23
2019-01-13T14:00:20.630Z,96350.02
2019-01-13T14:05:15.398Z,96334.05
2019-01-13T14:10:20.124Z,96307.48
2019-01-13T14:15:14.834Z,96336.06
2019-01-13T14:20:16.483Z,96335.86
2019-01-13T14:25:11.359Z,96337.27
2019-01-13T14:30:10.533Z,96306.90
2019-01-13T14:35:08.219Z,96307.78
2019-01-13T14:40:03.367Z,96302.38
2019-01-13T14:44:57.958Z,96310.48
2019-01-13T14:49:52.552Z,96289.61
2019-01-13T14:54:47.136Z,96292.58
2019-01-13T14:59:41.747Z,96272.80
2019-01-13T15:04:36.352Z,96273.98
2019-01-13T15:09:30.932Z,96267.30
2019-01-13T15:14:25.511Z,96287.28
2019-01-13T15:19:20.111Z,96305.45
2019-01-13T15:24:14.719Z,96263.66
2019-01-13T15:29:09.706Z,96248.27
2019-01-13T15:34:07.370Z,96236.96
2019-01-13T15:39:01.238Z,96223.41
2019-01-13T15:43:55.821Z,96212.70
2019-01-13T15:48:50.419Z,96205.47
2019-01-13T15:53:45.013Z,96195.75
2019-01-13T15:58:39.631Z,96200.55
2019-01-13T16:03:34.204Z,96204.74
2019-01-13T16:08:28.797Z,96211.33
2019-01-13T16:13:23.386Z,96221.08
2019-01-13T16:18:17.972Z,96200.86
2019-01-13T16:23:12.696Z,96185.41
2019-01-13T16:28:08.615Z,96181.81
2019-01-13T16:33:03.196Z,96143.94
2019-01-13T16:37:57.790Z,96131.93
2019-01-13T16:42:52.384Z,96110.25
2019-01-13T16:47:48.083Z,96078.10
2019-01-13T16:52:44.186Z,96096.63
2019-01-13T16:57:38.853Z,96084.34
2019-01-13T17:02:33.483Z,96082.09
2019-01-13T17:07:28.249Z,96045.24
2019-01-13T17:12:22.832Z,96044.09
2019-01-13T17:17:17.511Z,96054.95
2019-01-13T17:22:12.079Z,96067.70
2019-01-13T17:27:08.241Z,96074.91
2019-01-13T17:32:02.826Z,96060.48
2019-01-13T17:36:59.197Z,96044.41
2019-01-13T17:41:53.813Z,96037.27
2019-01-13T17:46:48.416Z,96038.61
2019-01-13T17:51:43.010Z,96034.70
2019-01-13T17:56:37.600Z,96046.23
2019-01-13T18:01:32.192Z,96020.38
2019-01-13T18:06:26.788Z,96011.15
2019-01-13T18:11:21.371Z,95997.98
2019-01-13T18:16:15.949Z,95985.45
2019-01-13T18:21:10.593Z,95981.70
2019-01-13T18:26:05.229Z,95992.61
2019-01-13T18:30:59.824Z,95990.81
2019-01-13T18:35:54.419Z,95977.42
2019-01-13T18:40:49.054Z,96000.80
2019-01-13T18:45:43.683Z,95995.08
2019-01-13T18:50:38.333Z,95998.79
2019-01-13T18:55:32.926Z,96012.45
2019-01-13T19:00:27.729Z,96007.80
2019-01-13T19:05:30.039Z,95989.44
2019-01-13T19:10:38.404Z,95975.48
2019-01-13T19:15:32.981Z,95960.28
2019-01-13T19:20:28.344Z,95961.74
2019-01-13T19:25:23.051Z,95982.14
2019-01-13T19:30:18.054Z,95995.07
2019-01-13T19:35:16.325Z,95990.31
2019-01-13T19:40:15.654Z,95992.34
2019-01-13T19:45:17.911Z,95978.02
2019-01-13T19:50:17.331Z,95995.08
2019-01-13T19:55:15.955Z,95993.42
2019-01-13T20:00:21.133Z,95996.81
2019-01-13T20:05:15.701Z,95982.61
2019-01-13T20:10:14.604Z,96008.61
2019-01-13T20:15:16.699Z,96012.13
2019-01-13T20:20:15.494Z,95997.53
2019-01-13T20:25:13.989Z,95986.16
2019-01-13T20:30:13.237Z,95983.04
2019-01-13T20:35:09.150Z,95964.18
2019-01-13T20:40:05.728Z,95941.38
2019-01-13T20:45:00.308Z,95951.94
2019-01-13T20:49:54.920Z,95928.64
2019-01-13T20:54:49.521Z,95916.70
2019-01-13T20:59:44.107Z,95906.80
2019-01-13T21:04:38.711Z,95868.48
2019-01-13T21:09:33.321Z,95801.25
2019-01-13T21:14:27.891Z,95812.91
2019-01-13T21:19:22.507Z,95804.09
2019-01-13T21:24:17.066Z,95798.34
2019-01-13T21:29:11.654Z,95780.95
2019-01-13T21:34:06.463Z,95770.53
2019-01-13T21:39:01.057Z,95757.20
2019-01-13T21:43:55.665Z,95767.39
2019-01-13T21:48:50.241Z,95742.27
2019-01-13T21:53:44.842Z,95781.23
2019-01-13T21:58:39.402Z,95794.87
2019-01-13T22:03:34.020Z,95809.05
2019-01-13T22:08:28.612Z,95829.06
2019-01-13T22:13:23.223Z,95825.86
2019-01-13T22:18:17.795Z,95853.18
2019-01-13T22:23:12.381Z,95842.25
2019-01-13T22:28:06.968Z,95846.61
2019-01-13T22:33:01.566Z,95846.25
2019-01-13T22:37:56.201Z,95854.17
2019-01-13T22:42:50.971Z,95849.75
2019-01-13T22:47:46.086Z,95859.83
2019-01-13T22:52:40.852Z,95844.65
2019-01-13T22:57:35.421Z,95854.17
2019-01-13T23:02:30.164Z,95869.82
2019-01-13T23:07:24.783Z,95863.77
2019-01-13T23:12:19.381Z,95861.05
2019-01-13T23:17:13.945Z,95862.23
2019-01-13T23:22:08.546Z,95842.97
2019-01-13T23:27:03.121Z,95841.72
2019-01-13T23:31:57.710Z,95850.12
2019-01-13T23:36:52.282Z,95848.29
2019-01-13T23:41:46.869Z,95840.23
2019-01-13T23:46:41.459Z,95805.79
2019-01-13T23:51:36.104Z,95806.73
2019-01-13T23:56:30.831Z,95790.45
